createdAt,value
2023-05-01T00:00:37.500Z,24.02
2023-05-01T00:01:37.483Z,24.02
2023-05-01T00:02:37.566Z,23.99
2023-05-01T00:03:37.779Z,23.99
2023-05-01T00:04:37.582Z,24.02
2023-05-01T00:05:37.595Z,24.02
2023-05-01T00:06:37.692Z,23.98
2023-05-01T00:07:37.619Z,23.98
2023-05-01T00:08:37.618Z,23.98
2023-05-01T00:09:37.624Z,24.02
2023-05-01T00:10:38.098Z,23.98
2023-05-01T00:11:37.657Z,24.01
2023-05-01T00:12:37.659Z,23.99
2023-05-01T00:13:37.692Z,24.01
2023-05-01T00:14:37.715Z,24.01
2023-05-01T00:15:37.766Z,23.98
2023-05-01T00:16:37.824Z,23.97
2023-05-01T00:17:37.930Z,23.98
2023-05-01T00:18:37.923Z,24.01
2023-05-01T00:19:37.992Z,23.98
2023-05-01T00:20:38.102Z,23.97
2023-05-01T00:21:38.066Z,23.99
2023-05-01T00:22:37.980Z,23.95
2023-05-01T00:23:38.014Z,23.98
2023-05-01T00:24:37.987Z,23.95
2023-05-01T00:25:38.033Z,23.94
2023-05-01T00:26:38.044Z,23.92
2023-05-01T00:27:37.971Z,23.95
2023-05-01T00:28:37.998Z,23.94
2023-05-01T00:29:38.005Z,23.92
2023-05-01T00:30:38.004Z,23.95
2023-05-01T00:31:38.003Z,23.91
2023-05-01T00:32:38.001Z,23.89
2023-05-01T00:33:37.977Z,23.92
2023-05-01T00:34:37.978Z,23.94
2023-05-01T00:35:38.006Z,23.95
2023-05-01T00:36:37.976Z,23.92
2023-05-01T00:37:37.984Z,23.91
2023-05-01T00:38:38.629Z,23.89
2023-05-01T00:39:38.035Z,23.92
2023-05-01T00:40:38.105Z,23.92
2023-05-01T00:41:37.963Z,23.87
2023-05-01T00:42:38.022Z,23.91
2023-05-01T00:43:37.991Z,23.89
2023-05-01T00:44:38.008Z,23.87
2023-05-01T00:45:38.044Z,23.88
2023-05-01T00:46:38.014Z,23.88
2023-05-01T00:47:38.033Z,23.88
2023-05-01T00:48:38.033Z,23.92
2023-05-01T00:49:37.996Z,23.92
2023-05-01T00:50:37.998Z,23.91
2023-05-01T00:51:38.005Z,23.95
2023-05-01T00:52:38.021Z,23.91
2023-05-01T00:53:37.968Z,23.91
2023-05-01T00:54:38.040Z,23.92
2023-05-01T00:55:38.010Z,23.89
2023-05-01T00:56:37.990Z,23.91
2023-05-01T00:57:38.049Z,23.91
2023-05-01T00:58:38.059Z,23.89
2023-05-01T00:59:38.060Z,23.87
2023-05-01T01:00:38.035Z,23.87
2023-05-01T01:01:38.187Z,23.88
2023-05-01T01:02:38.090Z,23.88
2023-05-01T01:03:38.105Z,23.87
2023-05-01T01:04:38.066Z,23.84
2023-05-01T01:05:38.093Z,23.89
2023-05-01T01:06:38.134Z,23.89
2023-05-01T01:07:38.062Z,23.88
2023-05-01T01:08:38.069Z,23.88
2023-05-01T01:09:38.027Z,23.85
2023-05-01T01:10:38.042Z,23.87
2023-05-01T01:11:38.001Z,23.88
2023-05-01T01:12:38.058Z,23.87
2023-05-01T01:13:38.061Z,23.85
2023-05-01T01:14:38.033Z,23.89
2023-05-01T01:15:38.057Z,23.87
2023-05-01T01:16:38.099Z,23.88
2023-05-01T01:17:38.084Z,23.85
2023-05-01T01:18:38.011Z,23.85
2023-05-01T01:19:38.020Z,23.84
2023-05-01T01:20:38.145Z,23.84
2023-05-01T01:21:38.008Z,23.85
2023-05-01T01:22:38.051Z,23.85
2023-05-01T01:23:38.033Z,23.85
2023-05-01T01:24:38.028Z,23.82
2023-05-01T01:25:38.024Z,23.85
2023-05-01T01:26:37.992Z,23.84
2023-05-01T01:27:37.996Z,23.84
2023-05-01T01:28:38.052Z,23.82
2023-05-01T01:29:38.011Z,23.82
2023-05-01T01:30:38.165Z,23.81
2023-05-01T01:31:38.091Z,23.77
2023-05-01T01:32:38.081Z,23.81
2023-05-01T01:33:38.004Z,23.77
2023-05-01T01:34:38.009Z,23.74
2023-05-01T01:35:38.145Z,23.77
2023-05-01T01:36:38.032Z,23.77
2023-05-01T01:37:37.994Z,23.77
2023-05-01T01:38:38.009Z,23.78
2023-05-01T01:39:38.048Z,23.77
2023-05-01T01:40:38.128Z,23.77
2023-05-01T01:41:38.047Z,23.75
2023-05-01T01:42:38.046Z,23.81
2023-05-01T01:43:38.021Z,23.78
2023-05-01T01:44:38.026Z,23.75
2023-05-01T01:45:38.032Z,23.74
2023-05-01T01:46:38.197Z,23.74
2023-05-01T01:47:38.053Z,23.78
2023-05-01T01:48:38.090Z,23.74
2023-05-01T01:49:38.099Z,23.77
2023-05-01T01:50:38.128Z,23.75
2023-05-01T01:51:38.042Z,23.70
2023-05-01T01:52:38.124Z,23.71
2023-05-01T01:53:38.066Z,23.77
2023-05-01T01:54:38.045Z,23.71
2023-05-01T01:55:38.127Z,23.71
2023-05-01T01:56:38.070Z,23.72
2023-05-01T01:57:38.065Z,23.72
2023-05-01T01:58:38.055Z,23.71
2023-05-01T01:59:38.054Z,23.70
2023-05-01T02:00:38.067Z,23.67
2023-05-01T02:01:38.058Z,23.70
2023-05-01T02:02:38.074Z,23.71
2023-05-01T02:03:38.270Z,23.72
2023-05-01T02:04:38.107Z,23.68
2023-05-01T02:05:38.653Z,23.68
2023-05-01T02:06:38.132Z,23.70
2023-05-01T02:07:38.066Z,23.68
2023-05-01T02:08:38.065Z,23.68
2023-05-01T02:09:38.057Z,23.67
2023-05-01T02:10:38.126Z,23.67
2023-05-01T02:11:38.073Z,23.68
2023-05-01T02:12:38.086Z,23.68
2023-05-01T02:13:38.047Z,23.65
2023-05-01T02:14:38.053Z,23.64
2023-05-01T02:15:38.166Z,23.65
2023-05-01T02:16:38.135Z,23.67
2023-05-01T02:17:38.108Z,23.70
2023-05-01T02:18:38.083Z,23.65
2023-05-01T02:19:38.104Z,23.71
2023-05-01T02:20:38.056Z,23.67
2023-05-01T02:21:38.116Z,23.67
2023-05-01T02:22:38.082Z,23.64
2023-05-01T02:23:38.069Z,23.65
2023-05-01T02:24:38.127Z,23.67
2023-05-01T02:25:38.158Z,23.67
2023-05-01T02:26:38.112Z,23.65
2023-05-01T02:27:38.096Z,23.63
2023-05-01T02:28:38.061Z,23.65
2023-05-01T02:29:38.107Z,23.68
2023-05-01T02:30:38.098Z,23.64
2023-05-01T02:31:38.147Z,23.60
2023-05-01T02:32:38.099Z,23.61
2023-05-01T02:33:38.164Z,23.60
2023-05-01T02:34:38.098Z,23.63
2023-05-01T02:35:38.101Z,23.64
2023-05-01T02:36:38.141Z,23.64
2023-05-01T02:37:38.100Z,23.61
2023-05-01T02:38:38.169Z,23.63
2023-05-01T02:39:38.175Z,23.60
2023-05-01T02:40:38.176Z,23.63
2023-05-01T02:41:38.188Z,23.60
2023-05-01T02:42:38.209Z,23.58
2023-05-01T02:43:38.222Z,23.58
2023-05-01T02:44:38.228Z,23.60
2023-05-01T02:45:38.331Z,23.57
2023-05-01T02:46:38.380Z,23.58
2023-05-01T02:47:38.300Z,23.60
2023-05-01T02:48:38.289Z,23.56
2023-05-01T02:49:38.269Z,23.60
2023-05-01T02:50:38.307Z,23.58
2023-05-01T02:51:38.308Z,23.58
2023-05-01T02:52:38.326Z,23.61
2023-05-01T02:53:38.291Z,23.61
2023-05-01T02:54:38.286Z,23.58
2023-05-01T02:55:38.288Z,23.58
2023-05-01T02:56:38.349Z,23.56
2023-05-01T02:57:38.353Z,23.56
2023-05-01T02:58:38.365Z,23.58
2023-05-01T02:59:38.379Z,23.56
2023-05-01T03:00:38.314Z,23.58
2023-05-01T03:01:38.745Z,23.58
2023-05-01T03:02:38.302Z,23.56
2023-05-01T03:03:38.341Z,23.57
2023-05-01T03:04:38.460Z,23.57
2023-05-01T03:05:38.350Z,23.53
2023-05-01T03:06:38.809Z,23.56
2023-05-01T03:07:38.356Z,23.54
2023-05-01T03:08:38.431Z,23.56
2023-05-01T03:09:38.425Z,23.56
2023-05-01T03:10:38.368Z,23.56
2023-05-01T03:11:38.651Z,23.58
2023-05-01T03:12:38.370Z,23.57
2023-05-01T03:13:38.395Z,23.53
2023-05-01T03:14:38.418Z,23.53
2023-05-01T03:15:38.492Z,23.56
2023-05-01T03:16:38.471Z,23.57
2023-05-01T03:17:38.475Z,23.54
2023-05-01T03:18:38.423Z,23.58
2023-05-01T03:19:38.423Z,23.53
2023-05-01T03:20:38.484Z,23.54
2023-05-01T03:21:38.455Z,23.53
2023-05-01T03:22:38.456Z,23.53
2023-05-01T03:23:38.448Z,23.52
2023-05-01T03:24:38.479Z,23.52
2023-05-01T03:25:38.510Z,23.57
2023-05-01T03:26:38.539Z,23.52
2023-05-01T03:27:38.577Z,23.53
2023-05-01T03:28:38.555Z,23.53
2023-05-01T03:29:38.536Z,23.53
2023-05-01T03:30:38.580Z,23.52
2023-05-01T03:31:38.611Z,23.53
2023-05-01T03:32:38.617Z,23.52
2023-05-01T03:33:38.582Z,23.50
2023-05-01T03:34:38.628Z,23.52
2023-05-01T03:35:38.623Z,23.52
2023-05-01T03:36:38.722Z,23.49
2023-05-01T03:37:38.659Z,23.47
2023-05-01T03:38:38.674Z,23.50
2023-05-01T03:39:38.676Z,23.50
2023-05-01T03:40:38.744Z,23.46
2023-05-01T03:41:38.753Z,23.49
2023-05-01T03:42:38.738Z,23.53
2023-05-01T03:43:38.684Z,23.50
2023-05-01T03:44:38.675Z,23.43
2023-05-01T03:45:38.732Z,23.46
2023-05-01T03:46:38.866Z,23.47
2023-05-01T03:47:38.776Z,23.50
2023-05-01T03:48:38.714Z,23.44
2023-05-01T03:49:38.723Z,23.44
2023-05-01T03:50:38.799Z,23.50
2023-05-01T03:51:38.767Z,23.52
2023-05-01T03:52:38.813Z,23.46
2023-05-01T03:53:38.778Z,23.49
2023-05-01T03:54:38.788Z,23.49
2023-05-01T03:55:38.795Z,23.47
2023-05-01T03:56:38.834Z,23.50
2023-05-01T03:57:38.816Z,23.52
2023-05-01T03:58:38.854Z,23.46
2023-05-01T03:59:38.847Z,23.47
2023-05-01T04:00:38.882Z,23.50
2023-05-01T04:01:38.944Z,23.46
2023-05-01T04:02:38.949Z,23.47
2023-05-01T04:03:39.088Z,23.47
2023-05-01T04:04:38.998Z,23.53
2023-05-01T04:05:38.948Z,23.49
2023-05-01T04:06:39.002Z,23.49
2023-05-01T04:07:38.943Z,23.47
2023-05-01T04:08:38.953Z,23.47
2023-05-01T04:09:38.968Z,23.54
2023-05-01T04:10:39.033Z,23.50
2023-05-01T04:11:39.050Z,23.52
2023-05-01T04:12:39.035Z,23.53
2023-05-01T04:13:39.070Z,23.52
2023-05-01T04:14:39.063Z,23.49
2023-05-01T04:15:39.158Z,23.53
2023-05-01T04:16:39.247Z,23.52
2023-05-01T04:17:39.153Z,23.49
2023-05-01T04:18:39.202Z,23.52
2023-05-01T04:19:39.148Z,23.53
2023-05-01T04:20:39.215Z,23.50
2023-05-01T04:21:39.221Z,23.50
2023-05-01T04:22:39.202Z,23.50
2023-05-01T04:23:39.229Z,23.52
2023-05-01T04:24:39.266Z,23.50
2023-05-01T04:25:39.288Z,23.49
2023-05-01T04:26:39.710Z,23.47
2023-05-01T04:27:39.361Z,23.46
2023-05-01T04:28:39.373Z,23.47
2023-05-01T04:29:39.323Z,23.49
2023-05-01T04:30:39.381Z,23.46
2023-05-01T04:31:39.406Z,23.46
2023-05-01T04:32:39.464Z,23.47
2023-05-01T04:33:39.442Z,23.43
2023-05-01T04:34:39.435Z,23.47
2023-05-01T04:35:39.464Z,23.47
2023-05-01T04:36:40.180Z,23.46
2023-05-01T04:37:39.482Z,23.46
2023-05-01T04:38:39.477Z,23.49
2023-05-01T04:39:39.542Z,23.50
2023-05-01T04:40:39.621Z,23.52
2023-05-01T04:41:39.557Z,23.49
2023-05-01T04:42:39.596Z,23.47
2023-05-01T04:43:39.597Z,23.49
2023-05-01T04:44:39.661Z,23.47
2023-05-01T04:45:39.678Z,23.44
2023-05-01T04:46:39.783Z,23.50
2023-05-01T04:47:39.733Z,23.47
2023-05-01T04:48:39.761Z,23.49
2023-05-01T04:49:39.742Z,23.47
2023-05-01T04:50:39.756Z,23.44
2023-05-01T04:51:39.826Z,23.44
2023-05-01T04:52:39.792Z,23.47
2023-05-01T04:53:39.815Z,23.44
2023-05-01T04:54:39.856Z,23.46
2023-05-01T04:55:39.853Z,23.43
2023-05-01T04:56:39.852Z,23.47
2023-05-01T04:57:39.851Z,23.47
2023-05-01T04:58:39.907Z,23.46
2023-05-01T04:59:39.926Z,23.43
2023-05-01T05:00:40.701Z,23.44
2023-05-01T05:01:40.012Z,23.40
2023-05-01T05:02:40.123Z,23.42
2023-05-01T05:03:40.132Z,23.40
2023-05-01T05:04:40.060Z,23.40
2023-05-01T05:05:40.071Z,23.42
2023-05-01T05:06:40.202Z,23.46
2023-05-01T05:07:40.120Z,23.39
2023-05-01T05:08:40.156Z,23.40
2023-05-01T05:09:40.168Z,23.43
2023-05-01T05:10:40.148Z,23.40
2023-05-01T05:11:40.204Z,23.39
2023-05-01T05:12:40.206Z,23.40
2023-05-01T05:13:40.276Z,23.40
2023-05-01T05:14:40.284Z,23.36
2023-05-01T05:15:40.295Z,23.37
2023-05-01T05:16:40.760Z,23.36
2023-05-01T05:17:40.408Z,23.40
2023-05-01T05:18:40.412Z,23.43
2023-05-01T05:19:40.422Z,23.44
2023-05-01T05:20:40.428Z,23.42
2023-05-01T05:21:40.482Z,23.43
2023-05-01T05:22:40.486Z,23.40
2023-05-01T05:23:40.497Z,23.40
2023-05-01T05:24:40.566Z,23.42
2023-05-01T05:25:40.591Z,23.40
2023-05-01T05:26:40.619Z,23.44
2023-05-01T05:27:40.670Z,23.40
2023-05-01T05:28:40.690Z,23.42
2023-05-01T05:29:40.685Z,23.40
2023-05-01T05:30:40.727Z,23.37
2023-05-01T05:31:40.840Z,23.36
2023-05-01T05:32:40.827Z,23.37
2023-05-01T05:33:40.834Z,23.37
2023-05-01T05:34:40.850Z,23.39
2023-05-01T05:35:40.879Z,23.37
2023-05-01T05:36:40.953Z,23.37
2023-05-01T05:37:40.965Z,23.40
2023-05-01T05:38:40.962Z,23.36
2023-05-01T05:39:41.020Z,23.42
2023-05-01T05:40:41.686Z,23.36
2023-05-01T05:41:41.091Z,23.39
2023-05-01T05:42:41.091Z,23.33
2023-05-01T05:43:41.147Z,23.37
2023-05-01T05:44:41.168Z,23.34
2023-05-01T05:45:41.181Z,23.36
2023-05-01T05:46:41.341Z,23.34
2023-05-01T05:47:41.321Z,23.34
2023-05-01T05:48:41.305Z,23.36
2023-05-01T05:49:41.344Z,23.29
2023-05-01T05:50:41.341Z,23.36
2023-05-01T05:51:41.413Z,23.34
2023-05-01T05:52:41.384Z,23.33
2023-05-01T05:53:41.466Z,23.32
2023-05-01T05:54:41.476Z,23.33
2023-05-01T05:55:41.526Z,23.34
2023-05-01T05:56:41.720Z,23.34
2023-05-01T05:57:41.545Z,23.34
2023-05-01T05:58:41.561Z,23.36
2023-05-01T05:59:41.615Z,23.33
2023-05-01T06:00:41.637Z,23.37
2023-05-01T06:01:41.657Z,23.37
2023-05-01T06:02:41.771Z,23.32
2023-05-01T06:03:41.899Z,23.39
2023-05-01T06:04:41.755Z,23.36
2023-05-01T06:05:41.825Z,23.37
2023-05-01T06:06:42.248Z,23.36
2023-05-01T06:07:41.826Z,23.32
2023-05-01T06:08:41.852Z,23.37
2023-05-01T06:09:41.946Z,23.33
2023-05-01T06:10:41.981Z,23.36
2023-05-01T06:11:42.217Z,23.37
2023-05-01T06:12:44.999Z,23.36
2023-05-01T06:13:43.155Z,23.34
2023-05-01T06:14:41.959Z,23.36
2023-05-01T06:15:42.066Z,23.32
2023-05-01T06:16:41.958Z,23.30
2023-05-01T06:17:42.289Z,23.34
2023-05-01T06:18:43.346Z,23.37
2023-05-01T06:19:42.064Z,23.32
2023-05-01T06:20:42.044Z,23.36
2023-05-01T06:21:42.112Z,23.33
2023-05-01T06:22:42.115Z,23.34
2023-05-01T06:23:42.190Z,23.34
2023-05-01T06:24:42.179Z,23.33
2023-05-01T06:25:42.207Z,23.36
2023-05-01T06:26:42.242Z,23.37
2023-05-01T06:27:42.255Z,23.34
2023-05-01T06:28:43.271Z,23.32
2023-05-01T06:29:42.328Z,23.34
2023-05-01T06:30:42.340Z,23.34
2023-05-01T06:31:42.438Z,23.36
2023-05-01T06:32:42.519Z,23.34
2023-05-01T06:33:42.451Z,23.40
2023-05-01T06:34:42.479Z,23.36
2023-05-01T06:35:42.515Z,23.37
2023-05-01T06:36:42.508Z,23.37
2023-05-01T06:37:42.551Z,23.36
2023-05-01T06:38:42.577Z,23.33
2023-05-01T06:39:42.599Z,23.37
2023-05-01T06:40:42.634Z,23.34
2023-05-01T06:41:42.641Z,23.37
2023-05-01T06:42:42.691Z,23.36
2023-05-01T06:43:42.754Z,23.37
2023-05-01T06:44:42.797Z,23.37
2023-05-01T06:45:42.757Z,23.34
2023-05-01T06:46:42.850Z,23.37
2023-05-01T06:47:42.880Z,23.37
2023-05-01T06:48:42.843Z,23.37
2023-05-01T06:49:42.897Z,23.37
2023-05-01T06:50:42.912Z,23.39
2023-05-01T06:51:42.912Z,23.37
2023-05-01T06:52:43.002Z,23.39
2023-05-01T06:53:42.947Z,23.39
2023-05-01T06:54:43.016Z,23.37
2023-05-01T06:55:43.057Z,23.39
2023-05-01T06:56:43.048Z,23.37
2023-05-01T06:57:43.134Z,23.39
2023-05-01T06:58:43.075Z,23.39
2023-05-01T06:59:43.118Z,23.40
2023-05-01T07:00:43.198Z,23.39
2023-05-01T07:01:43.309Z,23.39
2023-05-01T07:02:43.443Z,23.40
2023-05-01T07:03:43.301Z,23.40
2023-05-01T07:04:43.277Z,23.42
2023-05-01T07:05:43.337Z,23.40
2023-05-01T07:06:43.391Z,23.40
2023-05-01T07:07:50.505Z,23.39
2023-05-01T07:08:44.387Z,23.36
2023-05-01T07:09:43.433Z,23.40
2023-05-01T07:10:43.382Z,23.37
2023-05-01T07:11:43.423Z,23.40
2023-05-01T07:12:43.337Z,23.46
2023-05-01T07:13:43.366Z,23.40
2023-05-01T07:14:43.341Z,23.43
2023-05-01T07:15:43.335Z,23.42
2023-05-01T07:16:43.371Z,23.40
2023-05-01T07:17:43.492Z,23.46
2023-05-01T07:18:43.376Z,23.43
2023-05-01T07:19:43.322Z,23.46
2023-05-01T07:20:43.338Z,23.46
2023-05-01T07:21:43.282Z,23.44
2023-05-01T07:22:43.756Z,23.44
2023-05-01T07:23:43.306Z,23.47
2023-05-01T07:24:43.302Z,23.49
2023-05-01T07:25:43.307Z,23.49
2023-05-01T07:26:43.348Z,23.49
2023-05-01T07:27:43.381Z,23.49
2023-05-01T07:28:43.443Z,23.52
2023-05-01T07:29:43.557Z,23.50
2023-05-01T07:30:43.499Z,23.50
2023-05-01T07:31:43.645Z,23.50
2023-05-01T07:32:43.788Z,23.49
2023-05-01T07:33:43.619Z,23.50
2023-05-01T07:34:43.701Z,23.50
2023-05-01T07:35:43.719Z,23.49
2023-05-01T07:36:43.729Z,23.52
2023-05-01T07:37:43.790Z,23.54
2023-05-01T07:38:43.823Z,23.52
2023-05-01T07:39:43.875Z,23.52
2023-05-01T07:40:43.888Z,23.53
2023-05-01T07:41:43.942Z,23.53
2023-05-01T07:42:43.945Z,23.50
2023-05-01T07:43:43.997Z,23.53
2023-05-01T07:44:44.016Z,23.54
2023-05-01T07:45:44.084Z,23.53
2023-05-01T07:46:44.126Z,23.56
2023-05-01T07:47:44.162Z,23.53
2023-05-01T07:48:44.136Z,23.56
2023-05-01T07:49:44.375Z,23.56
2023-05-01T07:50:44.226Z,23.56
2023-05-01T07:51:44.256Z,23.54
2023-05-01T07:52:44.742Z,23.54
2023-05-01T07:53:44.313Z,23.60
2023-05-01T07:54:44.383Z,23.58
2023-05-01T07:55:44.394Z,23.57
2023-05-01T07:56:44.365Z,23.57
2023-05-01T07:57:44.757Z,23.57
2023-05-01T07:58:44.449Z,23.58
2023-05-01T07:59:44.519Z,23.58
2023-05-01T08:00:44.521Z,23.58
2023-05-01T08:01:44.558Z,23.61
2023-05-01T08:02:44.732Z,23.60
2023-05-01T08:03:44.713Z,23.60
2023-05-01T08:04:44.758Z,23.58
2023-05-01T08:05:44.642Z,23.57
2023-05-01T08:06:44.679Z,23.56
2023-05-01T08:07:44.728Z,23.57
2023-05-01T08:08:44.746Z,23.57
2023-05-01T08:09:44.787Z,23.60
2023-05-01T08:10:44.786Z,23.60
2023-05-01T08:11:44.803Z,23.63
2023-05-01T08:12:44.860Z,23.56
2023-05-01T08:13:44.868Z,23.58
2023-05-01T08:14:44.882Z,23.58
2023-05-01T08:15:44.969Z,23.58
2023-05-01T08:16:45.103Z,23.58
2023-05-01T08:17:45.308Z,23.58
2023-05-01T08:18:45.014Z,23.61
2023-05-01T08:19:45.073Z,23.63
2023-05-01T08:20:45.061Z,23.60
2023-05-01T08:21:45.092Z,23.64
2023-05-01T08:22:45.116Z,23.60
2023-05-01T08:23:45.172Z,23.60
2023-05-01T08:24:45.165Z,23.57
2023-05-01T08:25:45.213Z,23.60
2023-05-01T08:26:45.227Z,23.64
2023-05-01T08:27:45.225Z,23.61
2023-05-01T08:28:45.263Z,23.61
2023-05-01T08:29:45.282Z,23.58
2023-05-01T08:30:45.297Z,23.60
2023-05-01T08:31:45.356Z,23.58
2023-05-01T08:32:45.385Z,23.63
2023-05-01T08:33:45.399Z,23.60
2023-05-01T08:34:45.431Z,23.63
2023-05-01T08:35:45.418Z,23.60
2023-05-01T08:36:45.413Z,23.63
2023-05-01T08:37:45.436Z,23.61
2023-05-01T08:38:45.489Z,23.60
2023-05-01T08:39:45.507Z,23.63
2023-05-01T08:40:45.507Z,23.61
2023-05-01T08:41:45.525Z,23.61
2023-05-01T08:42:45.585Z,23.63
2023-05-01T08:43:46.259Z,23.65
2023-05-01T08:44:45.576Z,23.63
2023-05-01T08:45:45.591Z,23.60
2023-05-01T08:46:45.656Z,23.65
2023-05-01T08:47:45.803Z,23.64
2023-05-01T08:48:45.662Z,23.63
2023-05-01T08:49:45.671Z,23.67
2023-05-01T08:50:45.681Z,23.64
2023-05-01T08:51:45.717Z,23.63
2023-05-01T08:52:45.740Z,23.67
2023-05-01T08:53:45.758Z,23.67
2023-05-01T08:54:45.762Z,23.65
2023-05-01T08:55:45.780Z,23.67
2023-05-01T08:56:45.821Z,23.70
2023-05-01T08:57:45.834Z,23.65
2023-05-01T08:58:45.839Z,23.67
2023-05-01T08:59:45.845Z,23.70
2023-05-01T09:00:45.880Z,23.70
2023-05-01T09:01:45.981Z,23.68
2023-05-01T09:02:45.972Z,23.67
2023-05-01T09:03:46.048Z,23.64
2023-05-01T09:04:45.949Z,23.67
2023-05-01T09:05:45.983Z,23.68
2023-05-01T09:06:46.039Z,23.68
2023-05-01T09:07:46.050Z,23.72
2023-05-01T09:08:45.977Z,23.70
2023-05-01T09:09:46.013Z,23.72
2023-05-01T09:10:46.053Z,23.70
2023-05-01T09:11:46.065Z,23.72
2023-05-01T09:12:46.066Z,23.74
2023-05-01T09:13:46.072Z,23.77
2023-05-01T09:14:46.104Z,23.72
2023-05-01T09:15:46.103Z,23.72
2023-05-01T09:16:46.164Z,23.75
2023-05-01T09:17:46.241Z,23.71
2023-05-01T09:18:46.741Z,23.74
2023-05-01T09:19:46.212Z,23.74
2023-05-01T09:20:46.189Z,23.74
2023-05-01T09:21:46.185Z,23.75
2023-05-01T09:22:46.240Z,23.74
2023-05-01T09:23:46.239Z,23.72
2023-05-01T09:24:46.205Z,23.74
2023-05-01T09:25:46.254Z,23.74
2023-05-01T09:26:46.254Z,23.78
2023-05-01T09:27:46.277Z,23.80
2023-05-01T09:28:46.259Z,23.75
2023-05-01T09:29:46.335Z,23.77
2023-05-01T09:30:46.350Z,23.78
2023-05-01T09:31:46.439Z,23.81
2023-05-01T09:32:46.340Z,23.78
2023-05-01T09:33:46.359Z,23.75
2023-05-01T09:34:46.413Z,23.80
2023-05-01T09:35:46.423Z,23.74
2023-05-01T09:36:47.294Z,23.77
2023-05-01T09:37:47.966Z,23.80
2023-05-01T09:38:46.456Z,23.78
2023-05-01T09:39:46.451Z,23.78
2023-05-01T09:40:46.493Z,23.80
2023-05-01T09:41:46.470Z,23.82
2023-05-01T09:42:46.481Z,23.80
2023-05-01T09:43:46.507Z,23.80
2023-05-01T09:44:46.496Z,23.81
2023-05-01T09:45:46.510Z,23.82
2023-05-01T09:46:46.490Z,23.81
2023-05-01T09:47:46.578Z,23.84
2023-05-01T09:48:46.549Z,23.87
2023-05-01T09:49:46.597Z,23.81
2023-05-01T09:50:46.521Z,23.81
2023-05-01T09:51:46.609Z,23.82
2023-05-01T09:52:46.572Z,23.84
2023-05-01T09:53:46.581Z,23.87
2023-05-01T09:54:46.588Z,23.84
2023-05-01T09:55:46.586Z,23.87
2023-05-01T09:56:46.613Z,23.84
2023-05-01T09:57:46.596Z,23.87
2023-05-01T09:58:46.656Z,23.91
2023-05-01T09:59:46.631Z,23.87
2023-05-01T10:00:46.730Z,23.89
2023-05-01T10:01:46.846Z,23.89
2023-05-01T10:02:46.716Z,23.91
2023-05-01T10:03:46.764Z,23.92
2023-05-01T10:04:46.650Z,23.89
2023-05-01T10:05:46.733Z,23.89
2023-05-01T10:06:46.713Z,23.94
2023-05-01T10:07:46.793Z,23.94
2023-05-01T10:08:46.691Z,23.94
2023-05-01T10:09:46.727Z,23.92
2023-05-01T10:10:46.709Z,23.97
2023-05-01T10:11:46.716Z,23.94
2023-05-01T10:12:46.785Z,23.95
2023-05-01T10:13:46.709Z,23.98
2023-05-01T10:14:46.800Z,23.97
2023-05-01T10:15:46.721Z,23.99
2023-05-01T10:16:46.788Z,23.97
2023-05-01T10:17:46.789Z,23.99
2023-05-01T10:18:46.766Z,24.01
2023-05-01T10:19:46.770Z,23.99
2023-05-01T10:20:46.755Z,23.98
2023-05-01T10:21:46.804Z,24.01
2023-05-01T10:22:46.844Z,24.01
2023-05-01T10:23:46.777Z,24.01
2023-05-01T10:24:46.832Z,23.98
2023-05-01T10:25:46.767Z,23.98
2023-05-01T10:26:46.773Z,24.02
2023-05-01T10:27:46.738Z,24.01
2023-05-01T10:28:46.732Z,24.01
2023-05-01T10:29:46.758Z,24.01
2023-05-01T10:30:46.797Z,24.04
2023-05-01T10:31:46.778Z,24.05
2023-05-01T10:32:46.866Z,24.05
2023-05-01T10:33:46.768Z,24.06
2023-05-01T10:34:46.750Z,24.08
2023-05-01T10:35:46.753Z,24.09
2023-05-01T10:36:46.753Z,24.06
2023-05-01T10:37:46.773Z,24.08
2023-05-01T10:38:46.771Z,24.05
2023-05-01T10:39:46.756Z,24.11
2023-05-01T10:40:47.297Z,24.08
2023-05-01T10:41:46.761Z,24.08
2023-05-01T10:42:46.800Z,24.05
2023-05-01T10:43:46.779Z,24.09
2023-05-01T10:44:46.816Z,24.12
2023-05-01T10:45:46.867Z,24.11
2023-05-01T10:46:46.998Z,24.09
2023-05-01T10:47:46.917Z,24.09
2023-05-01T10:48:46.817Z,24.08
2023-05-01T10:49:46.844Z,24.09
2023-05-01T10:50:46.852Z,24.12
2023-05-01T10:51:46.848Z,24.11
2023-05-01T10:52:46.839Z,24.12
2023-05-01T10:53:46.850Z,24.16
2023-05-01T10:54:46.837Z,24.12
2023-05-01T10:55:46.879Z,24.15
2023-05-01T10:56:46.891Z,24.15
2023-05-01T10:57:46.879Z,24.15
2023-05-01T10:58:46.879Z,24.13
2023-05-01T10:59:46.886Z,24.17
2023-05-01T11:00:46.932Z,24.17
2023-05-01T11:01:46.974Z,24.13
2023-05-01T11:02:46.979Z,24.13
2023-05-01T11:03:46.972Z,24.13
2023-05-01T11:04:47.031Z,24.19
2023-05-01T11:05:47.036Z,24.17
2023-05-01T11:06:47.066Z,24.16
2023-05-01T11:07:47.280Z,24.19
2023-05-01T11:08:47.080Z,24.17
2023-05-01T11:09:47.197Z,24.17
2023-05-01T11:10:47.129Z,24.17
2023-05-01T11:11:47.144Z,24.16
2023-05-01T11:12:47.147Z,24.16
2023-05-01T11:13:47.144Z,24.19
2023-05-01T11:14:47.177Z,24.22
2023-05-01T11:15:47.158Z,24.17
2023-05-01T11:16:47.275Z,24.22
2023-05-01T11:17:47.218Z,24.22
2023-05-01T11:18:47.202Z,24.22
2023-05-01T11:19:47.228Z,24.16
2023-05-01T11:20:47.170Z,24.23
2023-05-01T11:21:47.158Z,24.20
2023-05-01T11:22:47.189Z,24.22
2023-05-01T11:23:47.173Z,24.22
2023-05-01T11:24:47.152Z,24.22
2023-05-01T11:25:47.197Z,24.23
2023-05-01T11:26:47.252Z,24.23
2023-05-01T11:27:47.280Z,24.23
2023-05-01T11:28:47.347Z,24.22
2023-05-01T11:29:47.324Z,24.22
2023-05-01T11:30:47.324Z,24.23
2023-05-01T11:31:47.396Z,24.20
2023-05-01T11:32:47.491Z,24.22
2023-05-01T11:33:47.451Z,24.27
2023-05-01T11:34:47.472Z,24.25
2023-05-01T11:35:47.485Z,24.25
2023-05-01T11:36:47.469Z,24.26
2023-05-01T11:37:47.492Z,24.27
2023-05-01T11:38:47.487Z,24.26
2023-05-01T11:39:47.552Z,24.26
2023-05-01T11:40:47.584Z,24.25
2023-05-01T11:41:47.687Z,24.26
2023-05-01T11:42:47.617Z,24.26
2023-05-01T11:43:47.627Z,24.27
2023-05-01T11:44:47.700Z,24.27
2023-05-01T11:45:47.713Z,24.32
2023-05-01T11:46:47.746Z,24.30
2023-05-01T11:47:47.769Z,24.30
2023-05-01T11:48:47.752Z,24.30
2023-05-01T11:49:47.725Z,24.30
2023-05-01T11:50:47.743Z,24.27
2023-05-01T11:51:47.789Z,24.29
2023-05-01T11:52:47.823Z,24.32
2023-05-01T11:53:47.817Z,24.32
2023-05-01T11:54:47.870Z,24.30
2023-05-01T11:55:47.868Z,24.32
2023-05-01T11:56:47.883Z,24.32
2023-05-01T11:57:47.934Z,24.34
2023-05-01T11:58:47.942Z,24.33
2023-05-01T11:59:47.930Z,24.33
2023-05-01T12:00:48.024Z,24.34
2023-05-01T12:01:47.976Z,24.32
2023-05-01T12:02:48.113Z,24.34
2023-05-01T12:03:48.098Z,24.36
2023-05-01T12:04:48.118Z,24.36
2023-05-01T12:05:48.062Z,24.36
2023-05-01T12:06:48.263Z,24.37
2023-05-01T12:07:48.115Z,24.39
2023-05-01T12:08:48.218Z,24.36
2023-05-01T12:09:48.233Z,24.37
2023-05-01T12:10:48.248Z,24.39
2023-05-01T12:11:50.541Z,24.39
2023-05-01T12:12:48.336Z,24.40
2023-05-01T12:13:48.347Z,24.37
2023-05-01T12:14:48.309Z,24.39
2023-05-01T12:15:48.331Z,24.37
2023-05-01T12:16:48.412Z,24.40
2023-05-01T12:17:48.314Z,24.37
2023-05-01T12:18:48.327Z,24.39
2023-05-01T12:19:48.248Z,24.40
2023-05-01T12:20:48.245Z,24.40
2023-05-01T12:21:48.220Z,24.39
2023-05-01T12:22:48.237Z,24.42
2023-05-01T12:23:48.244Z,24.37
2023-05-01T12:24:48.202Z,24.40
2023-05-01T12:25:48.220Z,24.39
2023-05-01T12:26:48.180Z,24.43
2023-05-01T12:27:48.197Z,24.43
2023-05-01T12:28:48.203Z,24.43
2023-05-01T12:29:48.187Z,24.43
2023-05-01T12:30:48.176Z,24.46
2023-05-01T12:31:48.282Z,24.46
2023-05-01T12:32:48.216Z,24.44
2023-05-01T12:33:48.166Z,24.42
2023-05-01T12:34:48.129Z,24.43
2023-05-01T12:35:48.145Z,24.44
2023-05-01T12:36:48.112Z,24.46
2023-05-01T12:37:48.152Z,24.44
2023-05-01T12:38:48.125Z,24.44
2023-05-01T12:39:48.075Z,24.46
2023-05-01T12:40:48.139Z,24.46
2023-05-01T12:41:48.126Z,24.49
2023-05-01T12:42:48.073Z,24.49
2023-05-01T12:43:48.089Z,24.50
2023-05-01T12:44:48.095Z,24.49
2023-05-01T12:45:48.102Z,24.50
2023-05-01T12:46:48.092Z,24.50
2023-05-01T12:47:48.125Z,24.52
2023-05-01T12:48:48.162Z,24.50
2023-05-01T12:49:48.243Z,24.52
2023-05-01T12:50:49.810Z,24.52
2023-05-01T12:51:48.367Z,24.50
2023-05-01T12:52:48.414Z,24.52